createdAt,value
2019-01-11T00:01:39.074Z,33.97
2019-01-11T00:04:08.531Z,33.93
2019-01-11T00:06:38.098Z,35.67
2019-01-11T00:09:08.652Z,36.10
2019-01-11T00:11:38.338Z,37.37
2019-01-11T00:14:07.877Z,34.40
2019-01-11T00:16:37.273Z,37.57
2019-01-11T00:19:07.255Z,36.43
2019-01-11T00:21:37.231Z,36.70
2019-01-11T00:24:58.507Z,36.63
2019-01-11T00:27:27.742Z,35.07
2019-01-11T00:29:57.186Z,35.43
2019-01-11T00:32:27.641Z,38.00
2019-01-11T00:34:56.997Z,36.20
2019-01-11T00:37:26.205Z,34.97
2019-01-11T00:39:55.647Z,35.63
2019-01-11T00:42:25.109Z,34.27
2019-01-11T00:44:54.287Z,34.57
2019-01-11T00:47:23.749Z,33.23
2019-01-11T00:49:53.218Z,34.67
2019-01-11T00:52:23.540Z,34.40
2019-01-11T00:54:52.748Z,32.50
2019-01-11T00:57:22.142Z,35.63
2019-01-11T00:59:51.458Z,32.60
2019-01-11T01:02:20.787Z,34.90
2019-01-11T01:04:50.263Z,32.97
2019-01-11T01:07:19.897Z,34.83
2019-01-11T01:09:49.447Z,34.63
2019-01-11T01:12:18.822Z,34.00
2019-01-11T01:14:48.270Z,32.53
2019-01-11T01:17:17.632Z,34.63
2019-01-11T01:19:46.898Z,31.67
2019-01-11T01:22:17.484Z,34.07
2019-01-11T01:24:46.750Z,35.93
2019-01-11T01:27:16.202Z,34.87
2019-01-11T01:29:45.464Z,33.03
2019-01-11T01:32:14.903Z,34.20
2019-01-11T01:34:44.303Z,34.03
2019-01-11T01:37:15.509Z,32.60
2019-01-11T01:39:44.999Z,31.43
2019-01-11T01:42:14.550Z,31.93
2019-01-11T01:44:44.787Z,34.93
2019-01-11T01:47:14.005Z,32.43
2019-01-11T01:49:43.381Z,35.07
2019-01-11T01:52:12.577Z,35.30
2019-01-11T01:54:42.085Z,32.73
2019-01-11T01:57:12.322Z,33.70
2019-01-11T01:59:41.562Z,34.97
2019-01-11T02:02:11.029Z,35.47
2019-01-11T02:04:40.426Z,32.90
2019-01-11T02:07:09.935Z,31.90
2019-01-11T02:09:39.513Z,33.20
2019-01-11T02:12:08.947Z,33.03
2019-01-11T02:14:38.509Z,30.47
2019-01-11T02:17:07.994Z,31.67
2019-01-11T02:19:37.447Z,32.77
2019-01-11T02:22:06.830Z,32.50
2019-01-11T02:24:36.085Z,30.73
2019-01-11T02:27:05.699Z,32.07
2019-01-11T02:29:37.110Z,31.17
2019-01-11T02:32:06.462Z,31.70
2019-01-11T02:34:35.763Z,30.37
2019-01-11T02:37:05.355Z,32.43
2019-01-11T02:39:34.769Z,32.93
2019-01-11T02:42:04.373Z,33.57
2019-01-11T02:44:33.740Z,34.70
2019-01-11T02:47:02.930Z,32.60
2019-01-11T02:49:32.330Z,34.20
2019-01-11T02:52:01.587Z,30.70
2019-01-11T02:54:30.963Z,28.47
2019-01-11T02:57:00.437Z,32.33
2019-01-11T02:59:29.607Z,27.17
2019-01-11T03:01:59.076Z,27.17
2019-01-11T03:04:28.632Z,27.40
2019-01-11T03:06:58.128Z,28.77
2019-01-11T03:09:27.633Z,25.90
2019-01-11T03:11:57.137Z,26.23
2019-01-11T03:14:26.563Z,27.43
2019-01-11T03:17:01.029Z,27.70
2019-01-11T03:19:30.223Z,30.03
2019-01-11T03:22:00.464Z,30.03
2019-01-11T03:24:29.975Z,32.07
2019-01-11T03:26:59.452Z,29.07
2019-01-11T03:29:34.747Z,30.77
2019-01-11T03:32:15.290Z,30.33
2019-01-11T03:34:46.388Z,28.43
2019-01-11T03:37:15.563Z,29.87
2019-01-11T03:39:45.003Z,31.57
2019-01-11T03:42:15.312Z,30.97
2019-01-11T03:44:44.795Z,31.83
2019-01-11T03:47:14.012Z,31.90
2019-01-11T03:49:45.448Z,32.93
2019-01-11T03:52:18.673Z,34.30
2019-01-11T03:54:53.874Z,33.30
2019-01-11T03:57:28.007Z,30.63
2019-01-11T03:59:58.231Z,32.43
2019-01-11T04:02:27.399Z,32.70
2019-01-11T04:04:56.873Z,31.93
2019-01-11T04:07:27.157Z,33.77
2019-01-11T04:09:56.393Z,31.33
2019-01-11T04:12:25.766Z,34.53
2019-01-11T04:14:58.130Z,33.67
2019-01-11T04:17:29.686Z,32.20
2019-01-11T04:20:02.251Z,33.30
2019-01-11T04:22:29.985Z,34.03
2019-01-11T04:25:06.742Z,34.33
2019-01-11T04:27:36.246Z,34.07
2019-01-11T04:30:09.772Z,34.90
2019-01-11T04:32:39.034Z,33.53
2019-01-11T04:35:08.637Z,32.73
2019-01-11T04:37:41.150Z,34.47
2019-01-11T04:40:13.256Z,34.30
2019-01-11T04:42:42.447Z,34.17
2019-01-11T04:45:12.083Z,34.60
2019-01-11T04:47:42.612Z,30.60
2019-01-11T04:50:16.544Z,34.93
2019-01-11T04:52:46.271Z,32.90
2019-01-11T04:55:16.302Z,31.80
2019-01-11T04:57:46.827Z,37.50
2019-01-11T05:00:20.786Z,33.10
2019-01-11T05:02:50.366Z,37.20
2019-01-11T05:05:19.927Z,33.90
2019-01-11T05:07:49.352Z,34.67
2019-01-11T05:10:19.662Z,36.63
2019-01-11T05:12:49.116Z,34.80
2019-01-11T05:15:18.746Z,35.83
2019-01-11T05:17:48.978Z,37.50
2019-01-11T05:20:18.225Z,34.60
2019-01-11T05:22:47.693Z,36.97
2019-01-11T05:25:17.164Z,37.30
2019-01-11T05:27:46.799Z,37.87
2019-01-11T05:30:17.111Z,36.13
2019-01-11T05:32:46.486Z,36.87
2019-01-11T05:35:15.951Z,33.77
2019-01-11T05:37:45.391Z,35.40
2019-01-11T05:40:16.961Z,36.10
2019-01-11T05:42:46.544Z,37.07
2019-01-11T05:45:17.063Z,35.23
2019-01-11T05:47:46.354Z,38.90
2019-01-11T05:50:23.976Z,36.30
2019-01-11T05:52:51.475Z,36.83
2019-01-11T05:55:38.793Z,35.50
2019-01-11T05:58:24.571Z,34.40
2019-01-11T06:00:54.002Z,34.73
2019-01-11T06:03:23.455Z,35.83
2019-01-11T06:05:53.323Z,39.00
2019-01-11T06:08:22.659Z,35.90
2019-01-11T06:10:51.972Z,35.13
2019-01-11T06:13:21.536Z,36.60
2019-01-11T06:15:51.803Z,35.87
2019-01-11T06:18:22.366Z,34.33
2019-01-11T06:20:51.865Z,32.43
2019-01-11T06:23:22.362Z,30.33
2019-01-11T06:25:51.981Z,33.30
2019-01-11T06:28:21.503Z,35.03
2019-01-11T06:30:51.612Z,35.70
2019-01-11T06:33:20.859Z,33.63
2019-01-11T06:35:50.415Z,34.57
2019-01-11T06:38:19.943Z,35.40
2019-01-11T06:40:49.397Z,34.37
2019-01-11T06:43:18.916Z,34.63
2019-01-11T06:45:48.305Z,36.50
2019-01-11T06:48:19.122Z,35.57
2019-01-11T06:50:48.581Z,36.57
2019-01-11T06:53:18.045Z,36.83
2019-01-11T06:55:47.217Z,36.57
2019-01-11T06:58:16.677Z,37.97
2019-01-11T07:00:46.191Z,35.90
2019-01-11T07:03:15.736Z,35.83
2019-01-11T07:05:45.246Z,37.70
2019-01-11T07:08:14.678Z,39.77
2019-01-11T07:10:45.020Z,38.27
2019-01-11T07:13:14.564Z,39.83
2019-01-11T07:15:46.150Z,37.70
2019-01-11T07:18:15.645Z,36.83
2019-01-11T07:20:48.570Z,38.13
2019-01-11T07:23:18.001Z,36.73
2019-01-11T07:25:47.820Z,36.83
2019-01-11T07:28:17.731Z,37.97
2019-01-11T07:30:51.687Z,37.70
2019-01-11T07:33:22.519Z,40.90
2019-01-11T07:35:54.410Z,39.67
2019-01-11T07:38:23.909Z,39.07
2019-01-11T07:40:53.497Z,40.90
2019-01-11T07:43:22.930Z,39.27
2019-01-11T07:45:52.426Z,37.07
2019-01-11T07:48:21.956Z,40.03
2019-01-11T07:50:51.425Z,39.90
2019-01-11T07:53:20.599Z,41.90
2019-01-11T07:55:50.142Z,39.50
2019-01-11T07:58:19.605Z,38.50
2019-01-11T08:00:49.034Z,37.13
2019-01-11T08:03:18.256Z,39.07
2019-01-11T08:05:47.646Z,42.40
2019-01-11T08:08:20.031Z,42.03
2019-01-11T08:10:49.547Z,43.13
2019-01-11T08:13:19.017Z,41.73
2019-01-11T08:15:48.195Z,39.50
2019-01-11T08:18:17.704Z,39.83
2019-01-11T08:20:47.139Z,42.80
2019-01-11T08:23:16.502Z,41.37
2019-01-11T08:25:45.790Z,43.40
2019-01-11T08:28:16.815Z,42.60
2019-01-11T08:30:46.078Z,40.47
2019-01-11T08:33:18.579Z,43.53
2019-01-11T08:35:47.437Z,41.93
2019-01-11T08:38:17.758Z,41.33
2019-01-11T08:40:46.968Z,42.37
2019-01-11T08:43:16.455Z,41.33
2019-01-11T08:45:46.800Z,41.97
2019-01-11T08:48:21.180Z,41.03
2019-01-11T08:50:51.451Z,41.70
2019-01-11T08:53:23.881Z,42.10
2019-01-11T08:55:53.370Z,39.90
2019-01-11T08:58:22.825Z,43.53
2019-01-11T09:00:53.137Z,44.47
2019-01-11T09:03:22.440Z,44.83
2019-01-11T09:05:52.032Z,45.77
2019-01-11T09:08:22.633Z,47.90
2019-01-11T09:10:53.007Z,46.50
2019-01-11T09:13:22.362Z,45.63
2019-01-11T09:15:51.805Z,43.73
2019-01-11T09:18:21.317Z,45.67
2019-01-11T09:20:50.478Z,42.57
2019-01-11T09:23:20.013Z,49.67
2019-01-11T09:25:53.563Z,45.27
2019-01-11T09:28:23.037Z,44.17
2019-01-11T09:30:54.243Z,45.73
2019-01-11T09:33:23.713Z,44.83
2019-01-11T09:35:53.196Z,47.03
2019-01-11T09:38:23.484Z,44.93
2019-01-11T09:40:53.045Z,48.13
2019-01-11T09:43:22.551Z,46.77
2019-01-11T09:45:52.032Z,48.30
2019-01-11T09:48:21.683Z,47.87
2019-01-11T09:50:51.035Z,49.17
2019-01-11T09:53:20.194Z,49.47
2019-01-11T09:55:49.673Z,49.57
2019-01-11T09:58:19.201Z,48.70
2019-01-11T10:00:48.749Z,50.23
2019-01-11T10:03:18.196Z,52.33
2019-01-11T10:05:47.656Z,50.57
2019-01-11T10:08:16.896Z,51.80
2019-01-11T10:10:46.315Z,48.90
2019-01-11T10:13:15.829Z,55.90
2019-01-11T10:15:48.294Z,50.13
2019-01-11T10:18:17.678Z,51.23
2019-01-11T10:20:48.783Z,51.37
2019-01-11T10:23:17.950Z,47.40
2019-01-11T10:25:47.426Z,46.73
2019-01-11T10:28:17.733Z,44.00
2019-01-11T10:30:47.222Z,44.70
2019-01-11T10:33:16.466Z,42.67
2019-01-11T10:35:46.899Z,42.13
2019-01-11T10:38:16.143Z,44.10
2019-01-11T10:40:45.355Z,42.27
2019-01-11T10:43:14.749Z,42.10
2019-01-11T10:45:43.929Z,42.13
2019-01-11T10:48:13.425Z,43.27
2019-01-11T10:50:43.003Z,41.03
2019-01-11T10:53:12.493Z,44.23
2019-01-11T10:55:42.042Z,44.27
2019-01-11T10:58:12.382Z,45.07
2019-01-11T11:00:41.784Z,43.17
2019-01-11T11:03:11.090Z,43.10
2019-01-11T11:05:40.329Z,43.97
2019-01-11T11:08:09.573Z,43.17
2019-01-11T11:10:38.937Z,45.17
2019-01-11T11:13:08.397Z,43.50
2019-01-11T11:15:40.374Z,44.07
2019-01-11T11:18:09.915Z,40.97
2019-01-11T11:20:39.375Z,42.67
2019-01-11T11:23:08.534Z,43.13
2019-01-11T11:25:37.854Z,42.37
2019-01-11T11:28:07.063Z,43.80
2019-01-11T11:30:37.687Z,42.63
2019-01-11T11:33:06.996Z,45.37
2019-01-11T11:35:36.488Z,44.40
2019-01-11T11:38:05.911Z,42.33
2019-01-11T11:40:36.366Z,42.63
2019-01-11T11:43:05.747Z,43.23
2019-01-11T11:45:35.049Z,42.57
2019-01-11T11:48:04.819Z,44.03
2019-01-11T11:50:34.285Z,40.83
2019-01-11T11:53:03.931Z,45.03
2019-01-11T11:55:33.446Z,42.80
2019-01-11T11:58:04.890Z,42.37
2019-01-11T12:00:34.597Z,41.63
2019-01-11T12:03:04.790Z,43.37
2019-01-11T12:05:37.237Z,44.47
2019-01-11T12:08:06.679Z,43.60
2019-01-11T12:10:36.145Z,40.67
2019-01-11T12:13:05.556Z,44.27
2019-01-11T12:15:35.126Z,42.17
2019-01-11T12:18:04.414Z,45.83
2019-01-11T12:20:33.720Z,44.83
2019-01-11T12:23:03.297Z,45.43
2019-01-11T12:25:32.521Z,41.53
2019-01-11T12:28:01.779Z,45.60
2019-01-11T12:30:35.021Z,44.90
2019-01-11T12:33:19.427Z,45.93
2019-01-11T12:35:49.524Z,44.17
2019-01-11T12:38:18.702Z,43.70
2019-01-11T12:40:48.979Z,46.07
2019-01-11T12:43:18.451Z,46.07
2019-01-11T12:45:47.616Z,44.47
2019-01-11T12:48:17.098Z,46.57
2019-01-11T12:50:48.211Z,44.83
2019-01-11T12:53:19.367Z,44.67
2019-01-11T12:55:49.699Z,46.90
2019-01-11T12:58:20.046Z,46.63
2019-01-11T13:00:49.559Z,45.43
2019-01-11T13:03:19.041Z,48.93
2019-01-11T13:05:48.567Z,48.97
2019-01-11T13:08:18.020Z,48.17
2019-01-11T13:10:47.695Z,48.77
2019-01-11T13:13:17.027Z,48.23
2019-01-11T13:15:46.563Z,49.10
2019-01-11T13:18:15.803Z,49.77
2019-01-11T13:20:45.123Z,52.50
2019-01-11T13:23:14.303Z,48.83
2019-01-11T13:25:43.832Z,50.03
2019-01-11T13:28:13.236Z,47.40
2019-01-11T13:30:43.552Z,47.70
2019-01-11T13:33:12.769Z,47.80
2019-01-11T13:35:42.239Z,50.70
2019-01-11T13:38:11.667Z,49.37
2019-01-11T13:40:40.889Z,51.23
2019-01-11T13:43:10.129Z,49.17
2019-01-11T13:45:40.725Z,51.37
2019-01-11T13:48:10.091Z,51.67
2019-01-11T13:50:39.907Z,53.20
2019-01-11T13:53:09.448Z,50.53
2019-01-11T13:55:40.755Z,51.50
2019-01-11T13:58:10.170Z,48.67
2019-01-11T14:00:39.489Z,51.47
2019-01-11T14:03:09.693Z,50.87
2019-01-11T14:05:39.231Z,52.17
2019-01-11T14:08:08.659Z,50.80
2019-01-11T14:10:38.212Z,49.77
2019-01-11T14:13:08.905Z,49.33
2019-01-11T14:15:38.360Z,50.50
2019-01-11T14:18:07.884Z,49.50
2019-01-11T14:20:37.370Z,49.20
2019-01-11T14:23:06.928Z,50.63
2019-01-11T14:25:36.471Z,50.47
2019-01-11T14:28:05.797Z,50.27
2019-01-11T14:30:35.648Z,47.63
2019-01-11T14:33:06.275Z,48.80
2019-01-11T14:35:35.623Z,46.03
2019-01-11T14:38:05.128Z,48.23
2019-01-11T14:40:34.731Z,45.87
2019-01-11T14:43:04.281Z,47.93
2019-01-11T14:45:33.645Z,48.43
2019-01-11T14:48:02.953Z,47.03
2019-01-11T14:50:33.131Z,45.77
2019-01-11T14:53:02.314Z,42.77
2019-01-11T14:55:31.733Z,47.60
2019-01-11T14:58:00.901Z,46.93
2019-01-11T15:00:39.899Z,48.37
2019-01-11T15:03:09.206Z,44.77
2019-01-11T15:05:38.696Z,45.47
2019-01-11T15:08:18.063Z,45.67
2019-01-11T15:10:47.277Z,48.73
2019-01-11T15:13:16.496Z,48.70
2019-01-11T15:15:45.775Z,47.37
2019-01-11T15:18:15.025Z,45.53
2019-01-11T15:20:45.166Z,45.57
2019-01-11T15:23:14.383Z,44.50
2019-01-11T15:25:43.749Z,46.83
2019-01-11T15:28:14.099Z,43.17
2019-01-11T15:30:43.617Z,45.73
2019-01-11T15:33:13.069Z,45.20
2019-01-11T15:35:42.309Z,45.93
2019-01-11T15:38:11.994Z,44.60
2019-01-11T15:40:41.247Z,45.57
2019-01-11T15:43:10.701Z,46.47
2019-01-11T15:45:44.413Z,47.53
2019-01-11T15:48:15.821Z,44.87
2019-01-11T15:50:51.099Z,44.17
2019-01-11T15:53:21.421Z,46.83
2019-01-11T15:55:51.030Z,45.87
2019-01-11T15:58:21.315Z,45.27
2019-01-11T16:00:52.796Z,46.13
2019-01-11T16:03:23.130Z,43.57
2019-01-11T16:06:13.994Z,43.70
2019-01-11T16:09:04.310Z,40.93
2019-01-11T16:11:42.161Z,42.17
2019-01-11T16:14:21.318Z,42.80
2019-01-11T16:16:51.270Z,43.10
2019-01-11T16:19:20.450Z,42.13
2019-01-11T16:21:49.890Z,40.43
2019-01-11T16:24:20.239Z,37.57
2019-01-11T16:26:54.606Z,38.40
2019-01-11T16:29:23.784Z,37.07
2019-01-11T16:31:53.257Z,37.47
2019-01-11T16:34:22.744Z,37.97
2019-01-11T16:36:52.272Z,36.17
2019-01-11T16:39:21.859Z,38.80
2019-01-11T16:41:51.312Z,39.00
2019-01-11T16:44:20.562Z,37.80
2019-01-11T16:46:49.944Z,39.33
2019-01-11T16:49:20.146Z,42.03
2019-01-11T16:51:49.334Z,42.27
2019-01-11T16:54:18.785Z,45.37
2019-01-11T16:56:48.039Z,44.63
2019-01-11T16:59:17.368Z,54.87
2019-01-11T17:01:46.587Z,48.10
2019-01-11T17:04:15.958Z,46.97
2019-01-11T17:06:45.116Z,48.53
2019-01-11T17:09:15.118Z,45.57
2019-01-11T17:11:46.705Z,40.57
2019-01-11T17:14:16.029Z,36.53
2019-01-11T17:16:45.305Z,35.17
2019-01-11T17:19:14.478Z,35.63
2019-01-11T17:21:43.656Z,34.60
2019-01-11T17:24:12.872Z,34.93
2019-01-11T17:26:42.390Z,35.60
2019-01-11T17:29:12.665Z,33.43
2019-01-11T17:31:42.213Z,31.13
2019-01-11T17:34:11.752Z,35.73
2019-01-11T17:36:41.197Z,35.33
2019-01-11T17:39:10.726Z,34.07
2019-01-11T17:41:40.267Z,33.93
2019-01-11T17:44:10.543Z,33.67
2019-01-11T17:46:40.075Z,36.67
2019-01-11T17:49:10.340Z,33.37
2019-01-11T17:51:39.577Z,33.60
2019-01-11T17:54:09.038Z,35.93
2019-01-11T17:56:38.449Z,33.47
2019-01-11T17:59:10.824Z,33.30
2019-01-11T18:01:40.470Z,34.63
2019-01-11T18:04:09.711Z,38.87
2019-01-11T18:06:38.925Z,35.97
2019-01-11T18:09:08.281Z,38.43
2019-01-11T18:11:37.621Z,35.20
2019-01-11T18:14:07.933Z,37.37
2019-01-11T18:16:37.382Z,37.60
2019-01-11T18:19:07.684Z,38.67
2019-01-11T18:21:36.860Z,37.67
2019-01-11T18:24:06.320Z,39.93
2019-01-11T18:26:35.933Z,38.23
2019-01-11T18:29:05.427Z,37.33
2019-01-11T18:31:34.647Z,36.90
2019-01-11T18:34:05.120Z,38.80
2019-01-11T18:36:35.520Z,37.40
2019-01-11T18:39:07.389Z,38.87
2019-01-11T18:41:36.910Z,37.43
2019-01-11T18:44:07.249Z,39.23
2019-01-11T18:46:36.832Z,35.00
2019-01-11T18:49:06.342Z,39.47
2019-01-11T18:51:35.841Z,36.60
2019-01-11T18:54:05.455Z,37.70
2019-01-11T18:56:34.824Z,37.00
2019-01-11T18:59:04.355Z,33.17
2019-01-11T19:01:33.817Z,35.97
2019-01-11T19:04:05.446Z,38.17
2019-01-11T19:06:35.741Z,36.80
2019-01-11T19:09:08.055Z,34.40
2019-01-11T19:11:37.624Z,36.27
2019-01-11T19:14:07.109Z,34.60
2019-01-11T19:16:36.597Z,38.03
2019-01-11T19:19:06.183Z,35.00
2019-01-11T19:21:35.553Z,35.27
2019-01-11T19:24:05.406Z,33.70
2019-01-11T19:26:34.662Z,31.17
2019-01-11T19:29:04.438Z,33.40
2019-01-11T19:31:35.663Z,33.03
2019-01-11T19:34:05.225Z,33.57
2019-01-11T19:36:35.583Z,30.87
2019-01-11T19:39:06.635Z,34.63
2019-01-11T19:41:36.173Z,31.17
2019-01-11T19:44:05.619Z,32.40
2019-01-11T19:46:34.841Z,32.33
2019-01-11T19:49:04.659Z,30.87
2019-01-11T19:51:34.131Z,33.23
2019-01-11T19:54:03.352Z,32.70
2019-01-11T19:56:32.748Z,31.87
2019-01-11T19:59:02.313Z,34.13
2019-01-11T20:01:33.910Z,32.97
2019-01-11T20:04:03.792Z,33.57
2019-01-11T20:06:33.264Z,33.23
2019-01-11T20:09:03.515Z,33.93
2019-01-11T20:11:32.886Z,34.53
2019-01-11T20:14:02.277Z,34.10
2019-01-11T20:16:34.603Z,35.37
2019-01-11T20:19:04.271Z,35.07
2019-01-11T20:21:33.591Z,34.67
2019-01-11T20:24:03.137Z,34.37
2019-01-11T20:26:32.619Z,33.20
2019-01-11T20:29:02.048Z,34.87
2019-01-11T20:31:31.678Z,33.63
2019-01-11T20:34:00.985Z,33.77
2019-01-11T20:36:33.031Z,33.63
2019-01-11T20:39:02.690Z,35.37
2019-01-11T20:41:34.071Z,35.17
2019-01-11T20:44:06.143Z,36.67
2019-01-11T20:46:35.582Z,36.23
2019-01-11T20:49:05.049Z,35.90
2019-01-11T20:51:34.555Z,36.77
2019-01-11T20:54:05.058Z,36.07
2019-01-11T20:56:36.775Z,37.87
2019-01-11T20:59:12.997Z,37.53
2019-01-11T21:01:42.390Z,34.87
2019-01-11T21:04:11.663Z,37.43
2019-01-11T21:06:41.111Z,35.03
2019-01-11T21:09:10.604Z,35.33
2019-01-11T21:11:42.118Z,36.83
2019-01-11T21:14:12.427Z,38.60
2019-01-11T21:16:46.858Z,37.07
2019-01-11T21:19:17.113Z,36.00
2019-01-11T21:21:46.414Z,37.23
2019-01-11T21:24:15.816Z,36.90
2019-01-11T21:26:45.293Z,36.60
2019-01-11T21:29:16.855Z,36.37
2019-01-11T21:31:46.307Z,36.13
2019-01-11T21:34:15.554Z,40.03
2019-01-11T21:36:45.757Z,40.53
2019-01-11T21:39:15.308Z,38.97
2019-01-11T21:41:45.569Z,39.20
2019-01-11T21:44:15.061Z,40.10
2019-01-11T21:46:44.564Z,37.43
2019-01-11T21:49:17.344Z,37.40
2019-01-11T21:51:47.691Z,37.90
2019-01-11T21:54:18.812Z,39.57
2019-01-11T21:56:51.169Z,38.70
2019-01-11T21:59:20.380Z,38.67
2019-01-11T22:01:49.933Z,38.70
2019-01-11T22:04:19.287Z,38.30
2019-01-11T22:06:48.542Z,37.93
2019-01-11T22:09:19.939Z,39.07
2019-01-11T22:11:49.535Z,35.53
2019-01-11T22:14:19.051Z,37.90
2019-01-11T22:16:48.470Z,36.93
2019-01-11T22:19:18.004Z,37.10
2019-01-11T22:21:48.417Z,36.37
2019-01-11T22:24:17.793Z,34.83
2019-01-11T22:26:47.286Z,32.90
2019-01-11T22:29:16.495Z,32.53
2019-01-11T22:31:45.925Z,31.90
2019-01-11T22:34:15.389Z,31.63
2019-01-11T22:36:44.591Z,31.30
2019-01-11T22:39:19.333Z,32.50
2019-01-11T22:41:48.823Z,31.57
2019-01-11T22:44:19.234Z,30.67
2019-01-11T22:46:49.488Z,31.07
2019-01-11T22:49:19.016Z,32.50
2019-01-11T22:51:48.515Z,31.53
2019-01-11T22:54:17.984Z,31.30
2019-01-11T22:56:47.153Z,31.87
2019-01-11T22:59:16.629Z,33.87
2019-01-11T23:01:51.718Z,35.73
2019-01-11T23:04:21.463Z,38.73
2019-01-11T23:06:59.842Z,36.67
2019-01-11T23:09:30.165Z,36.83
2019-01-11T23:12:14.125Z,37.57
2019-01-11T23:14:43.615Z,37.47
2019-01-11T23:17:18.978Z,37.53
2019-01-11T23:19:50.339Z,38.23
2019-01-11T23:22:19.838Z,39.00
2019-01-11T23:24:49.336Z,39.43
2019-01-11T23:27:20.488Z,39.40
2019-01-11T23:29:49.985Z,40.17
2019-01-11T23:32:19.158Z,40.20
2019-01-11T23:34:49.447Z,41.80
2019-01-11T23:37:18.942Z,40.97
2019-01-11T23:39:48.421Z,40.17
2019-01-11T23:42:17.616Z,41.13
2019-01-11T23:44:49.055Z,38.27
2019-01-11T23:47:18.219Z,36.67
2019-01-11T23:49:47.686Z,34.80
2019-01-11T23:52:17.163Z,35.37
2019-01-11T23:54:46.395Z,33.70
2019-01-11T23:57:15.803Z,32.77
2019-01-11T23:59:45.264Z,29.90
